sensor_id;sensor_type;location;lat;lon;timestamp;P1;durP1;ratioP1;P2;durP2;ratioP2
19905;SDS011;10115;50.906;4.438;2023-03-03T00:00:50;15.20;;;12.13;;
19905;SDS011;10115;50.906;4.438;2023-03-03T00:03:20;13.07;;;11.33;;
19905;SDS011;10115;50.906;4.438;2023-03-03T00:05:47;12.73;;;11.43;;
19905;SDS011;10115;50.906;4.438;2023-03-03T00:08:13;16.67;;;12.07;;
19905;SDS011;10115;50.906;4.438;2023-03-03T00:10:39;13.30;;;11.30;;
19905;SDS011;10115;50.906;4.438;2023-03-03T00:13:11;14.00;;;12.60;;
19905;SDS011;10115;50.906;4.438;2023-03-03T00:15:44;14.07;;;12.67;;
19905;SDS011;10115;50.906;4.438;2023-03-03T00:18:20;13.03;;;11.80;;
19905;SDS011;10115;50.906;4.438;2023-03-03T00:20:51;13.83;;;12.40;;
19905;SDS011;10115;50.906;4.438;2023-03-03T00:23:19;12.90;;;11.80;;
19905;SDS011;10115;50.906;4.438;2023-03-03T00:26:20;15.77;;;12.37;;
19905;SDS011;10115;50.906;4.438;2023-03-03T00:28:48;13.30;;;11.57;;
19905;SDS011;10115;50.906;4.438;2023-03-03T00:31:17;14.60;;;10.50;;
19905;SDS011;10115;50.906;4.438;2023-03-03T00:33:50;14.80;;;11.30;;
19905;SDS011;10115;50.906;4.438;2023-03-03T00:38:51;14.57;;;13.20;;
19905;SDS011;10115;50.906;4.438;2023-03-03T00:41:25;12.97;;;11.83;;
19905;SDS011;10115;50.906;4.438;2023-03-03T00:43:52;13.93;;;12.50;;
19905;SDS011;10115;50.906;4.438;2023-03-03T00:46:18;13.50;;;11.70;;
19905;SDS011;10115;50.906;4.438;2023-03-03T00:48:48;12.77;;;11.43;;
19905;SDS011;10115;50.906;4.438;2023-03-03T00:53:58;14.10;;;12.57;;
19905;SDS011;10115;50.906;4.438;2023-03-03T00:56:24;15.23;;;13.17;;
19905;SDS011;10115;50.906;4.438;2023-03-03T00:58:50;17.47;;;13.13;;
19905;SDS011;10115;50.906;4.438;2023-03-03T01:01:16;10.57;;;9.87;;
19905;SDS011;10115;50.906;4.438;2023-03-03T01:03:42;12.67;;;11.57;;
19905;SDS011;10115;50.906;4.438;2023-03-03T01:06:08;12.67;;;11.37;;
19905;SDS011;10115;50.906;4.438;2023-03-03T01:08:35;15.17;;;13.50;;
19905;SDS011;10115;50.906;4.438;2023-03-03T01:11:20;13.97;;;11.87;;
19905;SDS011;10115;50.906;4.438;2023-03-03T01:13:48;13.73;;;12.47;;
19905;SDS011;10115;50.906;4.438;2023-03-03T01:16:15;27.23;;;12.03;;
19905;SDS011;10115;50.906;4.438;2023-03-03T01:18:41;13.87;;;12.57;;
19905;SDS011;10115;50.906;4.438;2023-03-03T01:21:07;12.13;;;10.93;;
19905;SDS011;10115;50.906;4.438;2023-03-03T01:23:34;14.17;;;12.70;;
19905;SDS011;10115;50.906;4.438;2023-03-03T01:25:59;19.43;;;13.37;;
19905;SDS011;10115;50.906;4.438;2023-03-03T01:28:25;13.57;;;11.63;;
19905;SDS011;10115;50.906;4.438;2023-03-03T01:30:51;14.03;;;12.60;;
19905;SDS011;10115;50.906;4.438;2023-03-03T01:33:17;15.27;;;13.50;;
19905;SDS011;10115;50.906;4.438;2023-03-03T01:35:44;13.13;;;11.97;;
19905;SDS011;10115;50.906;4.438;2023-03-03T01:38:10;16.40;;;15.07;;
19905;SDS011;10115;50.906;4.438;2023-03-03T01:40:36;14.60;;;13.30;;
19905;SDS011;10115;50.906;4.438;2023-03-03T01:43:02;17.43;;;11.40;;
19905;SDS011;10115;50.906;4.438;2023-03-03T01:45:29;13.63;;;12.27;;
19905;SDS011;10115;50.906;4.438;2023-03-03T01:51:21;15.73;;;13.37;;
19905;SDS011;10115;50.906;4.438;2023-03-03T01:53:32;15.03;;;13.17;;
19905;SDS011;10115;50.906;4.438;2023-03-03T01:56:03;13.40;;;12.17;;
19905;SDS011;10115;50.906;4.438;2023-03-03T01:58:42;14.00;;;12.73;;
19905;SDS011;10115;50.906;4.438;2023-03-03T02:01:32;15.87;;;11.43;;
19905;SDS011;10115;50.906;4.438;2023-03-03T02:03:58;15.17;;;11.00;;
19905;SDS011;10115;50.906;4.438;2023-03-03T02:06:26;12.73;;;11.53;;
19905;SDS011;10115;50.906;4.438;2023-03-03T02:09:01;13.47;;;11.87;;
19905;SDS011;10115;50.906;4.438;2023-03-03T02:11:28;14.70;;;13.30;;
19905;SDS011;10115;50.906;4.438;2023-03-03T02:13:56;14.07;;;11.80;;
19905;SDS011;10115;50.906;4.438;2023-03-03T02:16:22;13.80;;;11.23;;
19905;SDS011;10115;50.906;4.438;2023-03-03T02:18:48;15.67;;;13.27;;
19905;SDS011;10115;50.906;4.438;2023-03-03T02:21:15;17.20;;;14.03;;
19905;SDS011;10115;50.906;4.438;2023-03-03T02:26:11;19.30;;;13.77;;
19905;SDS011;10115;50.906;4.438;2023-03-03T02:28:42;13.17;;;11.47;;
19905;SDS011;10115;50.906;4.438;2023-03-03T02:31:13;16.43;;;12.73;;
19905;SDS011;10115;50.906;4.438;2023-03-03T02:33:41;20.67;;;12.23;;
19905;SDS011;10115;50.906;4.438;2023-03-03T02:36:10;18.70;;;14.43;;
19905;SDS011;10115;50.906;4.438;2023-03-03T02:38:54;14.93;;;13.57;;
19905;SDS011;10115;50.906;4.438;2023-03-03T02:41:58;16.53;;;12.50;;
19905;SDS011;10115;50.906;4.438;2023-03-03T02:44:45;15.20;;;13.80;;
19905;SDS011;10115;50.906;4.438;2023-03-03T02:47:11;16.73;;;14.17;;
19905;SDS011;10115;50.906;4.438;2023-03-03T02:49:37;15.87;;;12.87;;
19905;SDS011;10115;50.906;4.438;2023-03-03T02:52:04;18.50;;;13.77;;
19905;SDS011;10115;50.906;4.438;2023-03-03T02:54:34;14.33;;;12.70;;
19905;SDS011;10115;50.906;4.438;2023-03-03T02:57:00;14.00;;;12.13;;
19905;SDS011;10115;50.906;4.438;2023-03-03T02:59:26;16.67;;;13.33;;
19905;SDS011;10115;50.906;4.438;2023-03-03T03:01:52;12.93;;;11.83;;
19905;SDS011;10115;50.906;4.438;2023-03-03T03:04:19;16.00;;;14.13;;
19905;SDS011;10115;50.906;4.438;2023-03-03T03:06:46;18.77;;;15.70;;
19905;SDS011;10115;50.906;4.438;2023-03-03T03:09:13;20.50;;;15.27;;
19905;SDS011;10115;50.906;4.438;2023-03-03T03:11:40;19.57;;;15.57;;
19905;SDS011;10115;50.906;4.438;2023-03-03T03:14:07;17.10;;;12.40;;
19905;SDS011;10115;50.906;4.438;2023-03-03T03:16:34;24.17;;;14.00;;
19905;SDS011;10115;50.906;4.438;2023-03-03T03:19:01;16.10;;;13.57;;
19905;SDS011;10115;50.906;4.438;2023-03-03T03:21:27;18.67;;;14.43;;
19905;SDS011;10115;50.906;4.438;2023-03-03T03:23:53;25.33;;;17.77;;
19905;SDS011;10115;50.906;4.438;2023-03-03T03:26:19;15.10;;;13.60;;
19905;SDS011;10115;50.906;4.438;2023-03-03T03:28:46;23.00;;;16.73;;
19905;SDS011;10115;50.906;4.438;2023-03-03T03:31:12;17.87;;;14.40;;
19905;SDS011;10115;50.906;4.438;2023-03-03T03:33:38;12.20;;;10.93;;
19905;SDS011;10115;50.906;4.438;2023-03-03T03:36:04;20.07;;;13.00;;
19905;SDS011;10115;50.906;4.438;2023-03-03T03:38:31;17.27;;;14.67;;
19905;SDS011;10115;50.906;4.438;2023-03-03T03:40:58;17.90;;;14.43;;
19905;SDS011;10115;50.906;4.438;2023-03-03T03:43:24;13.77;;;11.80;;
19905;SDS011;10115;50.906;4.438;2023-03-03T03:45:50;14.73;;;13.33;;
19905;SDS011;10115;50.906;4.438;2023-03-03T03:48:16;13.77;;;12.57;;
19905;SDS011;10115;50.906;4.438;2023-03-03T03:50:44;16.73;;;13.50;;
19905;SDS011;10115;50.906;4.438;2023-03-03T03:53:11;15.90;;;14.17;;
19905;SDS011;10115;50.906;4.438;2023-03-03T03:55:37;17.23;;;14.00;;
19905;SDS011;10115;50.906;4.438;2023-03-03T03:58:02;22.60;;;14.30;;
19905;SDS011;10115;50.906;4.438;2023-03-03T04:00:28;12.60;;;11.40;;
19905;SDS011;10115;50.906;4.438;2023-03-03T04:02:54;12.70;;;11.57;;
19905;SDS011;10115;50.906;4.438;2023-03-03T04:05:20;21.17;;;14.37;;
19905;SDS011;10115;50.906;4.438;2023-03-03T04:07:45;20.37;;;13.60;;
19905;SDS011;10115;50.906;4.438;2023-03-03T04:10:11;20.30;;;14.80;;
19905;SDS011;10115;50.906;4.438;2023-03-03T04:12:37;29.40;;;14.87;;
19905;SDS011;10115;50.906;4.438;2023-03-03T04:15:07;15.53;;;12.83;;
19905;SDS011;10115;50.906;4.438;2023-03-03T04:17:34;13.17;;;11.90;;
19905;SDS011;10115;50.906;4.438;2023-03-03T04:20:01;13.67;;;12.37;;
19905;SDS011;10115;50.906;4.438;2023-03-03T04:22:27;19.80;;;13.23;;
19905;SDS011;10115;50.906;4.438;2023-03-03T04:24:57;21.10;;;13.13;;
19905;SDS011;10115;50.906;4.438;2023-03-03T04:27:24;14.87;;;13.17;;
19905;SDS011;10115;50.906;4.438;2023-03-03T04:29:49;15.70;;;14.03;;
19905;SDS011;10115;50.906;4.438;2023-03-03T04:32:15;14.50;;;12.67;;
19905;SDS011;10115;50.906;4.438;2023-03-03T04:34:42;18.83;;;13.30;;
19905;SDS011;10115;50.906;4.438;2023-03-03T04:37:08;16.30;;;13.53;;
19905;SDS011;10115;50.906;4.438;2023-03-03T04:39:34;15.00;;;13.30;;
19905;SDS011;10115;50.906;4.438;2023-03-03T04:41:59;15.47;;;13.97;;
19905;SDS011;10115;50.906;4.438;2023-03-03T04:44:25;14.13;;;12.83;;
19905;SDS011;10115;50.906;4.438;2023-03-03T04:46:51;21.50;;;14.43;;
19905;SDS011;10115;50.906;4.438;2023-03-03T04:49:16;21.67;;;15.97;;
19905;SDS011;10115;50.906;4.438;2023-03-03T04:51:42;16.23;;;14.27;;
19905;SDS011;10115;50.906;4.438;2023-03-03T04:54:08;14.50;;;12.67;;
19905;SDS011;10115;50.906;4.438;2023-03-03T04:56:33;23.13;;;14.37;;
19905;SDS011;10115;50.906;4.438;2023-03-03T04:58:59;19.73;;;14.27;;
19905;SDS011;10115;50.906;4.438;2023-03-03T05:01:25;14.30;;;12.60;;
19905;SDS011;10115;50.906;4.438;2023-03-03T05:03:51;16.13;;;13.80;;
19905;SDS011;10115;50.906;4.438;2023-03-03T05:06:16;14.97;;;12.77;;
19905;SDS011;10115;50.906;4.438;2023-03-03T05:08:43;15.37;;;13.80;;
19905;SDS011;10115;50.906;4.438;2023-03-03T05:11:09;16.27;;;11.23;;
19905;SDS011;10115;50.906;4.438;2023-03-03T05:13:35;16.20;;;14.53;;
19905;SDS011;10115;50.906;4.438;2023-03-03T05:16:01;18.33;;;14.70;;
19905;SDS011;10115;50.906;4.438;2023-03-03T05:18:26;18.30;;;14.37;;
19905;SDS011;10115;50.906;4.438;2023-03-03T05:20:52;16.93;;;15.23;;
19905;SDS011;10115;50.906;4.438;2023-03-03T05:23:18;12.73;;;11.57;;
19905;SDS011;10115;50.906;4.438;2023-03-03T05:25:48;15.07;;;13.60;;
19905;SDS011;10115;50.906;4.438;2023-03-03T05:28:14;13.27;;;11.63;;
19905;SDS011;10115;50.906;4.438;2023-03-03T05:30:40;14.27;;;10.97;;
19905;SDS011;10115;50.906;4.438;2023-03-03T05:33:05;11.73;;;10.90;;
19905;SDS011;10115;50.906;4.438;2023-03-03T05:35:31;13.83;;;11.80;;
19905;SDS011;10115;50.906;4.438;2023-03-03T05:38:00;13.40;;;10.70;;
19905;SDS011;10115;50.906;4.438;2023-03-03T05:40:27;13.53;;;12.33;;
19905;SDS011;10115;50.906;4.438;2023-03-03T05:42:52;12.93;;;9.97;;
19905;SDS011;10115;50.906;4.438;2023-03-03T05:45:18;15.40;;;11.77;;
19905;SDS011;10115;50.906;4.438;2023-03-03T05:47:48;14.93;;;12.13;;
19905;SDS011;10115;50.906;4.438;2023-03-03T05:50:14;16.03;;;12.67;;
19905;SDS011;10115;50.906;4.438;2023-03-03T05:52:40;12.87;;;11.37;;
19905;SDS011;10115;50.906;4.438;2023-03-03T05:55:06;15.70;;;13.00;;
19905;SDS011;10115;50.906;4.438;2023-03-03T05:57:32;14.30;;;9.37;;
19905;SDS011;10115;50.906;4.438;2023-03-03T05:59:59;17.27;;;11.80;;
19905;SDS011;10115;50.906;4.438;2023-03-03T06:02:29;19.97;;;12.57;;
19905;SDS011;10115;50.906;4.438;2023-03-03T06:04:55;14.73;;;13.73;;
19905;SDS011;10115;50.906;4.438;2023-03-03T06:07:21;18.17;;;12.00;;
19905;SDS011;10115;50.906;4.438;2023-03-03T06:09:46;18.10;;;12.07;;
19905;SDS011;10115;50.906;4.438;2023-03-03T06:12:12;14.10;;;9.90;;
19905;SDS011;10115;50.906;4.438;2023-03-03T06:14:38;16.53;;;13.43;;
19905;SDS011;10115;50.906;4.438;2023-03-03T06:17:03;11.33;;;10.53;;
19905;SDS011;10115;50.906;4.438;2023-03-03T06:19:30;9.00;;;8.40;;
19905;SDS011;10115;50.906;4.438;2023-03-03T06:21:56;11.67;;;10.77;;
19905;SDS011;10115;50.906;4.438;2023-03-03T06:24:22;19.47;;;12.70;;
19905;SDS011;10115;50.906;4.438;2023-03-03T06:26:49;16.20;;;12.73;;
19905;SDS011;10115;50.906;4.438;2023-03-03T06:29:16;14.17;;;12.97;;
19905;SDS011;10115;50.906;4.438;2023-03-03T06:31:41;12.30;;;10.73;;
19905;SDS011;10115;50.906;4.438;2023-03-03T06:34:07;16.33;;;11.07;;
19905;SDS011;10115;50.906;4.438;2023-03-03T06:36:33;12.40;;;11.20;;
19905;SDS011;10115;50.906;4.438;2023-03-03T06:38:59;12.77;;;11.70;;
19905;SDS011;10115;50.906;4.438;2023-03-03T06:41:25;14.73;;;13.33;;
19905;SDS011;10115;50.906;4.438;2023-03-03T06:43:51;13.53;;;12.13;;
19905;SDS011;10115;50.906;4.438;2023-03-03T06:46:16;17.73;;;13.60;;
19905;SDS011;10115;50.906;4.438;2023-03-03T06:48:42;16.80;;;13.30;;
19905;SDS011;10115;50.906;4.438;2023-03-03T06:51:50;16.63;;;12.20;;
19905;SDS011;10115;50.906;4.438;2023-03-03T06:54:00;15.97;;;14.23;;
19905;SDS011;10115;50.906;4.438;2023-03-03T06:56:30;13.40;;;12.10;;
19905;SDS011;10115;50.906;4.438;2023-03-03T06:59:00;16.30;;;12.23;;
19905;SDS011;10115;50.906;4.438;2023-03-03T07:01:29;16.47;;;12.57;;
19905;SDS011;10115;50.906;4.438;2023-03-03T07:04:00;20.37;;;14.07;;
19905;SDS011;10115;50.906;4.438;2023-03-03T07:06:25;14.23;;;12.90;;
19905;SDS011;10115;50.906;4.438;2023-03-03T07:08:52;11.80;;;10.60;;
19905;SDS011;10115;50.906;4.438;2023-03-03T07:11:20;9.17;;;8.67;;
19905;SDS011;10115;50.906;4.438;2023-03-03T07:13:47;17.27;;;14.50;;
19905;SDS011;10115;50.906;4.438;2023-03-03T07:16:15;18.10;;;12.97;;
19905;SDS011;10115;50.906;4.438;2023-03-03T07:21:19;14.80;;;13.37;;
19905;SDS011;10115;50.906;4.438;2023-03-03T07:23:48;16.20;;;14.50;;
19905;SDS011;10115;50.906;4.438;2023-03-03T07:26:23;14.40;;;12.93;;
19905;SDS011;10115;50.906;4.438;2023-03-03T07:29:12;14.10;;;10.27;;
19905;SDS011;10115;50.906;4.438;2023-03-03T07:31:45;20.93;;;13.70;;
19905;SDS011;10115;50.906;4.438;2023-03-03T07:34:57;16.27;;;14.20;;
19905;SDS011;10115;50.906;4.438;2023-03-03T07:36:58;17.63;;;14.53;;
19905;SDS011;10115;50.906;4.438;2023-03-03T07:39:38;23.33;;;14.13;;
19905;SDS011;10115;50.906;4.438;2023-03-03T07:42:18;16.37;;;12.63;;
19905;SDS011;10115;50.906;4.438;2023-03-03T07:44:51;14.07;;;12.60;;
19905;SDS011;10115;50.906;4.438;2023-03-03T07:47:25;15.70;;;14.07;;
19905;SDS011;10115;50.906;4.438;2023-03-03T07:49:55;15.80;;;14.37;;
19905;SDS011;10115;50.906;4.438;2023-03-03T07:52:33;16.90;;;11.73;;
19905;SDS011;10115;50.906;4.438;2023-03-03T07:57:58;11.73;;;10.93;;
19905;SDS011;10115;50.906;4.438;2023-03-03T08:03:43;11.20;;;10.07;;
19905;SDS011;10115;50.906;4.438;2023-03-03T08:08:56;13.00;;;10.50;;
19905;SDS011;10115;50.906;4.438;2023-03-03T08:11:34;10.27;;;9.47;;
19905;SDS011;10115;50.906;4.438;2023-03-03T08:14:21;20.87;;;12.33;;
19905;SDS011;10115;50.906;4.438;2023-03-03T08:16:54;14.13;;;12.70;;
19905;SDS011;10115;50.906;4.438;2023-03-03T08:19:21;12.63;;;11.47;;
19905;SDS011;10115;50.906;4.438;2023-03-03T08:21:47;14.80;;;13.30;;
19905;SDS011;10115;50.906;4.438;2023-03-03T08:24:13;15.00;;;12.50;;
19905;SDS011;10115;50.906;4.438;2023-03-03T08:26:38;18.97;;;11.83;;
19905;SDS011;10115;50.906;4.438;2023-03-03T08:29:04;11.67;;;10.63;;
19905;SDS011;10115;50.906;4.438;2023-03-03T08:31:30;13.20;;;11.77;;
19905;SDS011;10115;50.906;4.438;2023-03-03T08:33:56;21.57;;;12.03;;
19905;SDS011;10115;50.906;4.438;2023-03-03T08:36:22;15.57;;;12.87;;
19905;SDS011;10115;50.906;4.438;2023-03-03T08:38:48;12.97;;;11.87;;
19905;SDS011;10115;50.906;4.438;2023-03-03T08:41:14;14.20;;;11.17;;
19905;SDS011;10115;50.906;4.438;2023-03-03T08:43:40;17.80;;;12.27;;
19905;SDS011;10115;50.906;4.438;2023-03-03T08:46:06;14.30;;;13.00;;
19905;SDS011;10115;50.906;4.438;2023-03-03T08:48:34;11.73;;;10.57;;
19905;SDS011;10115;50.906;4.438;2023-03-03T08:51:00;13.33;;;11.90;;
19905;SDS011;10115;50.906;4.438;2023-03-03T08:53:25;14.30;;;11.73;;
19905;SDS011;10115;50.906;4.438;2023-03-03T08:55:51;13.00;;;11.80;;
19905;SDS011;10115;50.906;4.438;2023-03-03T08:58:18;19.40;;;12.73;;
19905;SDS011;10115;50.906;4.438;2023-03-03T09:00:44;15.83;;;12.50;;
19905;SDS011;10115;50.906;4.438;2023-03-03T09:03:10;11.90;;;10.93;;
19905;SDS011;10115;50.906;4.438;2023-03-03T09:05:36;12.87;;;11.30;;
19905;SDS011;10115;50.906;4.438;2023-03-03T09:08:03;9.57;;;8.63;;
19905;SDS011;10115;50.906;4.438;2023-03-03T09:10:30;11.60;;;10.50;;
19905;SDS011;10115;50.906;4.438;2023-03-03T09:12:57;13.90;;;11.63;;
19905;SDS011;10115;50.906;4.438;2023-03-03T09:15:33;10.10;;;9.30;;
19905;SDS011;10115;50.906;4.438;2023-03-03T09:18:05;10.43;;;9.73;;
19905;SDS011;10115;50.906;4.438;2023-03-03T09:20:45;16.33;;;12.47;;
19905;SDS011;10115;50.906;4.438;2023-03-03T09:25:48;11.57;;;10.57;;
19905;SDS011;10115;50.906;4.438;2023-03-03T09:28:28;8.70;;;8.03;;
19905;SDS011;10115;50.906;4.438;2023-03-03T09:30:56;12.77;;;11.50;;
19905;SDS011;10115;50.906;4.438;2023-03-03T09:33:24;13.30;;;12.00;;
19905;SDS011;10115;50.906;4.438;2023-03-03T09:35:51;9.90;;;9.10;;
19905;SDS011;10115;50.906;4.438;2023-03-03T09:46:12;10.03;;;9.17;;
19905;SDS011;10115;50.906;4.438;2023-03-03T09:48:46;11.17;;;9.57;;
19905;SDS011;10115;50.906;4.438;2023-03-03T09:59:13;14.87;;;11.70;;
19905;SDS011;10115;50.906;4.438;2023-03-03T10:15:11;15.47;;;10.47;;
19905;SDS011;10115;50.906;4.438;2023-03-03T10:17:50;20.80;;;12.97;;
19905;SDS011;10115;50.906;4.438;2023-03-03T10:26:02;19.50;;;12.10;;
19905;SDS011;10115;50.906;4.438;2023-03-03T10:29:01;10.20;;;9.50;;
19905;SDS011;10115;50.906;4.438;2023-03-03T10:42:04;14.60;;;10.27;;
19905;SDS011;10115;50.906;4.438;2023-03-03T10:52:41;13.87;;;11.50;;
19905;SDS011;10115;50.906;4.438;2023-03-03T10:55:30;15.40;;;11.00;;
19905;SDS011;10115;50.906;4.438;2023-03-03T11:14:02;18.17;;;11.07;;
19905;SDS011;10115;50.906;4.438;2023-03-03T11:24:30;13.03;;;11.60;;
19905;SDS011;10115;50.906;4.438;2023-03-03T11:27:07;15.77;;;10.83;;
19905;SDS011;10115;50.906;4.438;2023-03-03T11:32:32;11.67;;;10.47;;
19905;SDS011;10115;50.906;4.438;2023-03-03T11:35:16;18.17;;;10.13;;
19905;SDS011;10115;50.906;4.438;2023-03-03T11:43:53;22.47;;;12.57;;
19905;SDS011;10115;50.906;4.438;2023-03-03T11:46:41;12.13;;;10.87;;
19905;SDS011;10115;50.906;4.438;2023-03-03T11:49:20;21.20;;;12.37;;
19905;SDS011;10115;50.906;4.438;2023-03-03T11:52:27;12.10;;;9.20;;
19905;SDS011;10115;50.906;4.438;2023-03-03T11:55:25;16.23;;;10.37;;
19905;SDS011;10115;50.906;4.438;2023-03-03T11:58:06;14.70;;;10.87;;
19905;SDS011;10115;50.906;4.438;2023-03-03T12:06:07;11.47;;;9.67;;
19905;SDS011;10115;50.906;4.438;2023-03-03T12:14:56;12.97;;;10.30;;
19905;SDS011;10115;50.906;4.438;2023-03-03T12:19:31;14.93;;;11.13;;
19905;SDS011;10115;50.906;4.438;2023-03-03T12:25:14;14.07;;;10.63;;
19905;SDS011;10115;50.906;4.438;2023-03-03T12:27:49;12.87;;;11.57;;
19905;SDS011;10115;50.906;4.438;2023-03-03T12:38:25;16.63;;;11.57;;
19905;SDS011;10115;50.906;4.438;2023-03-03T12:44:00;13.97;;;10.60;;
19905;SDS011;10115;50.906;4.438;2023-03-03T12:49:31;16.20;;;11.13;;
19905;SDS011;10115;50.906;4.438;2023-03-03T12:57:24;12.97;;;10.80;;
19905;SDS011;10115;50.906;4.438;2023-03-03T13:06:15;15.60;;;10.97;;
19905;SDS011;10115;50.906;4.438;2023-03-03T13:14:38;10.53;;;8.50;;
19905;SDS011;10115;50.906;4.438;2023-03-03T13:20:13;10.10;;;9.07;;
19905;SDS011;10115;50.906;4.438;2023-03-03T13:22:54;12.87;;;9.27;;
19905;SDS011;10115;50.906;4.438;2023-03-03T13:25:34;15.37;;;10.73;;
19905;SDS011;10115;50.906;4.438;2023-03-03T13:31:01;10.20;;;9.30;;
19905;SDS011;10115;50.906;4.438;2023-03-03T13:33:35;10.40;;;9.30;;
19905;SDS011;10115;50.906;4.438;2023-03-03T13:36:08;17.77;;;10.57;;
19905;SDS011;10115;50.906;4.438;2023-03-03T13:38:36;14.20;;;10.10;;
19905;SDS011;10115;50.906;4.438;2023-03-03T13:44:53;10.67;;;9.67;;
19905;SDS011;10115;50.906;4.438;2023-03-03T13:52:25;10.07;;;9.17;;
19905;SDS011;10115;50.906;4.438;2023-03-03T13:57:38;9.57;;;8.67;;
19905;SDS011;10115;50.906;4.438;2023-03-03T14:05:46;10.67;;;9.13;;
19905;SDS011;10115;50.906;4.438;2023-03-03T14:08:25;10.07;;;9.00;;
19905;SDS011;10115;50.906;4.438;2023-03-03T14:13:28;17.47;;;9.10;;
19905;SDS011;10115;50.906;4.438;2023-03-03T14:21:48;13.10;;;9.10;;
19905;SDS011;10115;50.906;4.438;2023-03-03T14:24:26;10.70;;;8.23;;
19905;SDS011;10115;50.906;4.438;2023-03-03T14:26:55;13.60;;;8.70;;
19905;SDS011;10115;50.906;4.438;2023-03-03T14:31:58;10.27;;;8.13;;
19905;SDS011;10115;50.906;4.438;2023-03-03T14:34:29;8.57;;;7.77;;
19905;SDS011;10115;50.906;4.438;2023-03-03T14:37:41;10.53;;;7.93;;
19905;SDS011;10115;50.906;4.438;2023-03-03T14:42:37;12.00;;;8.00;;
19905;SDS011;10115;50.906;4.438;2023-03-03T14:46:28;11.63;;;7.67;;
19905;SDS011;10115;50.906;4.438;2023-03-03T14:48:10;10.13;;;7.60;;
19905;SDS011;10115;50.906;4.438;2023-03-03T14:50:42;10.13;;;8.33;;
19905;SDS011;10115;50.906;4.438;2023-03-03T14:55:51;10.73;;;8.10;;
19905;SDS011;10115;50.906;4.438;2023-03-03T14:58:25;9.60;;;6.90;;
19905;SDS011;10115;50.906;4.438;2023-03-03T15:06:32;9.90;;;7.23;;
19905;SDS011;10115;50.906;4.438;2023-03-03T15:09:18;10.97;;;7.37;;
19905;SDS011;10115;50.906;4.438;2023-03-03T15:11:44;10.27;;;7.40;;
19905;SDS011;10115;50.906;4.438;2023-03-03T15:14:14;9.03;;;7.10;;
19905;SDS011;10115;50.906;4.438;2023-03-03T15:16:42;10.10;;;7.53;;
19905;SDS011;10115;50.906;4.438;2023-03-03T15:21:53;10.63;;;7.23;;
19905;SDS011;10115;50.906;4.438;2023-03-03T15:24:33;12.07;;;7.00;;
19905;SDS011;10115;50.906;4.438;2023-03-03T15:30:19;9.73;;;7.27;;
19905;SDS011;10115;50.906;4.438;2023-03-03T15:33:24;13.63;;;7.50;;
19905;SDS011;10115;50.906;4.438;2023-03-03T15:36:11;10.93;;;7.50;;
19905;SDS011;10115;50.906;4.438;2023-03-03T15:42:02;7.60;;;7.00;;
19905;SDS011;10115;50.906;4.438;2023-03-03T15:44:45;8.10;;;7.23;;
19905;SDS011;10115;50.906;4.438;2023-03-03T15:50:48;6.83;;;6.23;;
19905;SDS011;10115;50.906;4.438;2023-03-03T15:56:03;10.50;;;8.17;;
19905;SDS011;10115;50.906;4.438;2023-03-03T16:04:44;7.43;;;6.93;;
19905;SDS011;10115;50.906;4.438;2023-03-03T16:15:46;7.63;;;7.03;;
19905;SDS011;10115;50.906;4.438;2023-03-03T16:23:48;7.63;;;7.03;;
19905;SDS011;10115;50.906;4.438;2023-03-03T16:31:30;6.90;;;6.30;;
19905;SDS011;10115;50.906;4.438;2023-03-03T16:34:25;7.67;;;6.97;;
19905;SDS011;10115;50.906;4.438;2023-03-03T16:40:07;8.00;;;7.07;;
19905;SDS011;10115;50.906;4.438;2023-03-03T16:42:35;9.07;;;8.17;;
19905;SDS011;10115;50.906;4.438;2023-03-03T16:48:01;8.83;;;7.20;;
19905;SDS011;10115;50.906;4.438;2023-03-03T16:50:49;8.17;;;7.37;;
19905;SDS011;10115;50.906;4.438;2023-03-03T16:53:42;8.83;;;8.13;;
19905;SDS011;10115;50.906;4.438;2023-03-03T16:56:27;8.23;;;7.37;;
19905;SDS011;10115;50.906;4.438;2023-03-03T17:04:54;7.43;;;6.93;;
19905;SDS011;10115;50.906;4.438;2023-03-03T17:07:41;9.30;;;8.50;;
19905;SDS011;10115;50.906;4.438;2023-03-03T17:16:13;8.97;;;8.00;;
19905;SDS011;10115;50.906;4.438;2023-03-03T17:18:49;7.93;;;7.43;;
19905;SDS011;10115;50.906;4.438;2023-03-03T17:29:59;8.27;;;7.67;;
19905;SDS011;10115;50.906;4.438;2023-03-03T17:38:46;9.30;;;8.17;;
19905;SDS011;10115;50.906;4.438;2023-03-03T18:01:57;8.30;;;7.50;;
19905;SDS011;10115;50.906;4.438;2023-03-03T18:04:50;10.00;;;8.00;;
19905;SDS011;10115;50.906;4.438;2023-03-03T18:10:52;7.70;;;7.20;;
19905;SDS011;10115;50.906;4.438;2023-03-03T18:13:51;8.70;;;8.03;;
19905;SDS011;10115;50.906;4.438;2023-03-03T18:25:06;8.97;;;8.27;;
19905;SDS011;10115;50.906;4.438;2023-03-03T18:27:36;9.67;;;8.03;;
19905;SDS011;10115;50.906;4.438;2023-03-03T18:35:24;9.00;;;8.13;;
19905;SDS011;10115;50.906;4.438;2023-03-03T18:37:50;10.27;;;9.20;;
19905;SDS011;10115;50.906;4.438;2023-03-03T18:40:26;11.00;;;8.97;;
19905;SDS011;10115;50.906;4.438;2023-03-03T18:42:56;9.70;;;8.87;;
19905;SDS011;10115;50.906;4.438;2023-03-03T18:50:39;10.77;;;9.73;;
19905;SDS011;10115;50.906;4.438;2023-03-03T19:00:46;9.70;;;8.53;;
19905;SDS011;10115;50.906;4.438;2023-03-03T19:05:53;9.37;;;8.47;;
19905;SDS011;10115;50.906;4.438;2023-03-03T19:11:17;10.40;;;8.23;;
19905;SDS011;10115;50.906;4.438;2023-03-03T19:16:51;9.47;;;8.57;;
19905;SDS011;10115;50.906;4.438;2023-03-03T19:19:31;9.50;;;8.03;;
19905;SDS011;10115;50.906;4.438;2023-03-03T19:30:10;8.50;;;7.90;;
19905;SDS011;10115;50.906;4.438;2023-03-03T19:38:18;8.93;;;8.17;;
19905;SDS011;10115;50.906;4.438;2023-03-03T19:40:58;9.27;;;8.37;;
19905;SDS011;10115;50.906;4.438;2023-03-03T19:54:26;8.80;;;8.00;;
19905;SDS011;10115;50.906;4.438;2023-03-03T19:57:04;8.60;;;7.90;;
19905;SDS011;10115;50.906;4.438;2023-03-03T20:00:02;9.03;;;8.20;;
19905;SDS011;10115;50.906;4.438;2023-03-03T20:05:47;8.90;;;8.00;;
19905;SDS011;10115;50.906;4.438;2023-03-03T20:08:38;8.40;;;7.80;;
19905;SDS011;10115;50.906;4.438;2023-03-03T20:22:56;9.33;;;8.53;;
19905;SDS011;10115;50.906;4.438;2023-03-03T20:25:47;8.67;;;7.87;;
19905;SDS011;10115;50.906;4.438;2023-03-03T20:31:19;8.77;;;7.97;;
19905;SDS011;10115;50.906;4.438;2023-03-03T20:34:00;8.50;;;7.67;;
19905;SDS011;10115;50.906;4.438;2023-03-03T20:43:19;8.53;;;7.83;;
19905;SDS011;10115;50.906;4.438;2023-03-03T20:45:42;8.53;;;7.93;;
19905;SDS011;10115;50.906;4.438;2023-03-03T20:53:50;8.53;;;7.90;;
19905;SDS011;10115;50.906;4.438;2023-03-03T20:59:37;9.03;;;8.33;;
19905;SDS011;10115;50.906;4.438;2023-03-03T21:07:34;8.90;;;8.30;;
19905;SDS011;10115;50.906;4.438;2023-03-03T21:10:14;9.47;;;8.67;;
19905;SDS011;10115;50.906;4.438;2023-03-03T21:12:47;9.93;;;9.03;;
19905;SDS011;10115;50.906;4.438;2023-03-03T21:15:35;10.40;;;9.50;;
19905;SDS011;10115;50.906;4.438;2023-03-03T21:18:00;10.13;;;9.20;;
19905;SDS011;10115;50.906;4.438;2023-03-03T21:20:45;10.33;;;9.33;;
19905;SDS011;10115;50.906;4.438;2023-03-03T21:23:10;10.33;;;9.50;;
19905;SDS011;10115;50.906;4.438;2023-03-03T21:28:15;11.00;;;9.80;;
19905;SDS011;10115;50.906;4.438;2023-03-03T21:31:05;9.67;;;8.97;;
19905;SDS011;10115;50.906;4.438;2023-03-03T21:42:02;10.33;;;9.27;;
19905;SDS011;10115;50.906;4.438;2023-03-03T21:46:59;11.27;;;10.20;;